sensor_id;sensor_type;location;lat;lon;timestamp;P1;durP1;ratioP1;P2;durP2;ratioP2
45848;SDS011;31567;54.600;9.842;2024-01-30T00:00:25;47.13;;;26.27;;
45848;SDS011;31567;54.600;9.842;2024-01-30T00:04:05;50.05;;;26.52;;
45848;SDS011;31567;54.600;9.842;2024-01-30T00:07:44;53.03;;;27.42;;
45848;SDS011;31567;54.600;9.842;2024-01-30T00:11:24;49.22;;;26.60;;
45848;SDS011;31567;54.600;9.842;2024-01-30T00:15:07;53.90;;;27.92;;
45848;SDS011;31567;54.600;9.842;2024-01-30T00:18:48;50.13;;;27.02;;
45848;SDS011;31567;54.600;9.842;2024-01-30T00:22:28;46.35;;;26.38;;
45848;SDS011;31567;54.600;9.842;2024-01-30T00:26:09;48.72;;;26.35;;
45848;SDS011;31567;54.600;9.842;2024-01-30T00:29:49;39.05;;;25.10;;
45848;SDS011;31567;54.600;9.842;2024-01-30T00:33:28;50.30;;;28.17;;
45848;SDS011;31567;54.600;9.842;2024-01-30T00:37:08;52.88;;;28.45;;
45848;SDS011;31567;54.600;9.842;2024-01-30T00:40:47;48.58;;;26.75;;
45848;SDS011;31567;54.600;9.842;2024-01-30T00:44:27;50.97;;;27.75;;
45848;SDS011;31567;54.600;9.842;2024-01-30T00:48:07;50.58;;;28.42;;
45848;SDS011;31567;54.600;9.842;2024-01-30T00:51:46;51.55;;;28.02;;
45848;SDS011;31567;54.600;9.842;2024-01-30T00:55:26;56.30;;;28.52;;
45848;SDS011;31567;54.600;9.842;2024-01-30T00:59:05;56.97;;;28.48;;
45848;SDS011;31567;54.600;9.842;2024-01-30T01:02:45;51.42;;;27.48;;
45848;SDS011;31567;54.600;9.842;2024-01-30T01:06:24;45.15;;;28.65;;
45848;SDS011;31567;54.600;9.842;2024-01-30T01:10:04;46.13;;;28.42;;
45848;SDS011;31567;54.600;9.842;2024-01-30T01:13:44;41.42;;;27.85;;
45848;SDS011;31567;54.600;9.842;2024-01-30T01:17:23;44.58;;;27.67;;
45848;SDS011;31567;54.600;9.842;2024-01-30T01:21:03;43.38;;;27.80;;
45848;SDS011;31567;54.600;9.842;2024-01-30T01:24:43;42.35;;;27.55;;
45848;SDS011;31567;54.600;9.842;2024-01-30T01:28:23;43.47;;;27.02;;
45848;SDS011;31567;54.600;9.842;2024-01-30T01:32:03;44.22;;;26.95;;
45848;SDS011;31567;54.600;9.842;2024-01-30T01:35:42;45.53;;;28.38;;
45848;SDS011;31567;54.600;9.842;2024-01-30T01:39:22;43.50;;;26.65;;
45848;SDS011;31567;54.600;9.842;2024-01-30T01:43:04;40.08;;;27.80;;
45848;SDS011;31567;54.600;9.842;2024-01-30T01:46:44;43.75;;;27.98;;
45848;SDS011;31567;54.600;9.842;2024-01-30T01:50:24;42.38;;;27.73;;
45848;SDS011;31567;54.600;9.842;2024-01-30T01:54:04;42.58;;;28.95;;
45848;SDS011;31567;54.600;9.842;2024-01-30T01:57:44;41.70;;;27.60;;
45848;SDS011;31567;54.600;9.842;2024-01-30T02:01:24;43.90;;;28.30;;
45848;SDS011;31567;54.600;9.842;2024-01-30T02:05:05;39.38;;;26.25;;
45848;SDS011;31567;54.600;9.842;2024-01-30T02:08:45;42.33;;;26.35;;
45848;SDS011;31567;54.600;9.842;2024-01-30T02:12:24;41.45;;;27.27;;
45848;SDS011;31567;54.600;9.842;2024-01-30T02:16:04;40.42;;;26.17;;
45848;SDS011;31567;54.600;9.842;2024-01-30T02:19:44;37.88;;;26.77;;
45848;SDS011;31567;54.600;9.842;2024-01-30T02:23:26;37.95;;;26.42;;
45848;SDS011;31567;54.600;9.842;2024-01-30T02:27:06;42.60;;;26.70;;
45848;SDS011;31567;54.600;9.842;2024-01-30T02:30:46;40.70;;;27.08;;
45848;SDS011;31567;54.600;9.842;2024-01-30T02:34:25;40.20;;;27.42;;
45848;SDS011;31567;54.600;9.842;2024-01-30T02:38:05;44.35;;;28.00;;
45848;SDS011;31567;54.600;9.842;2024-01-30T02:41:44;42.45;;;28.08;;
45848;SDS011;31567;54.600;9.842;2024-01-30T02:45:24;41.60;;;26.73;;
45848;SDS011;31567;54.600;9.842;2024-01-30T02:49:03;42.33;;;27.02;;
45848;SDS011;31567;54.600;9.842;2024-01-30T02:52:43;45.72;;;27.88;;
45848;SDS011;31567;54.600;9.842;2024-01-30T02:56:23;36.95;;;24.20;;
45848;SDS011;31567;54.600;9.842;2024-01-30T03:00:02;40.22;;;25.92;;
45848;SDS011;31567;54.600;9.842;2024-01-30T03:03:44;38.20;;;25.90;;
45848;SDS011;31567;54.600;9.842;2024-01-30T03:07:24;36.90;;;25.40;;
45848;SDS011;31567;54.600;9.842;2024-01-30T03:11:03;38.55;;;25.85;;
45848;SDS011;31567;54.600;9.842;2024-01-30T03:14:43;43.70;;;27.40;;
45848;SDS011;31567;54.600;9.842;2024-01-30T03:18:22;44.30;;;28.15;;
45848;SDS011;31567;54.600;9.842;2024-01-30T03:22:02;39.13;;;27.45;;
45848;SDS011;31567;54.600;9.842;2024-01-30T03:25:41;38.67;;;25.90;;
45848;SDS011;31567;54.600;9.842;2024-01-30T03:29:21;36.28;;;25.27;;
45848;SDS011;31567;54.600;9.842;2024-01-30T03:33:01;40.53;;;25.88;;
45848;SDS011;31567;54.600;9.842;2024-01-30T03:36:40;38.63;;;24.58;;
45848;SDS011;31567;54.600;9.842;2024-01-30T03:40:20;35.20;;;24.00;;
45848;SDS011;31567;54.600;9.842;2024-01-30T03:43:59;35.38;;;25.33;;
45848;SDS011;31567;54.600;9.842;2024-01-30T03:47:39;37.55;;;26.45;;
45848;SDS011;31567;54.600;9.842;2024-01-30T03:51:18;38.03;;;25.85;;
45848;SDS011;31567;54.600;9.842;2024-01-30T03:54:58;37.83;;;26.10;;
45848;SDS011;31567;54.600;9.842;2024-01-30T03:58:38;37.25;;;24.33;;
45848;SDS011;31567;54.600;9.842;2024-01-30T04:02:17;32.10;;;23.17;;
45848;SDS011;31567;54.600;9.842;2024-01-30T04:05:57;34.88;;;24.35;;
45848;SDS011;31567;54.600;9.842;2024-01-30T04:09:37;33.47;;;24.42;;
45848;SDS011;31567;54.600;9.842;2024-01-30T04:13:17;34.08;;;24.58;;
45848;SDS011;31567;54.600;9.842;2024-01-30T04:16:57;33.80;;;24.77;;
45848;SDS011;31567;54.600;9.842;2024-01-30T04:20:36;33.10;;;24.00;;
45848;SDS011;31567;54.600;9.842;2024-01-30T04:24:16;34.25;;;24.13;;
45848;SDS011;31567;54.600;9.842;2024-01-30T04:27:57;31.55;;;22.77;;
45848;SDS011;31567;54.600;9.842;2024-01-30T04:31:37;32.22;;;23.27;;
45848;SDS011;31567;54.600;9.842;2024-01-30T04:35:16;28.75;;;22.15;;
45848;SDS011;31567;54.600;9.842;2024-01-30T04:38:56;31.58;;;23.35;;
45848;SDS011;31567;54.600;9.842;2024-01-30T04:42:36;29.98;;;22.50;;
45848;SDS011;31567;54.600;9.842;2024-01-30T04:46:15;27.35;;;22.05;;
45848;SDS011;31567;54.600;9.842;2024-01-30T04:49:55;29.58;;;23.98;;
45848;SDS011;31567;54.600;9.842;2024-01-30T04:53:34;28.05;;;23.00;;
45848;SDS011;31567;54.600;9.842;2024-01-30T04:57:14;31.92;;;24.02;;
45848;SDS011;31567;54.600;9.842;2024-01-30T05:00:53;32.38;;;23.88;;
45848;SDS011;31567;54.600;9.842;2024-01-30T05:04:33;30.42;;;23.52;;
45848;SDS011;31567;54.600;9.842;2024-01-30T05:08:12;32.78;;;23.92;;
45848;SDS011;31567;54.600;9.842;2024-01-30T05:11:52;30.13;;;23.42;;
45848;SDS011;31567;54.600;9.842;2024-01-30T05:15:32;31.08;;;22.85;;
45848;SDS011;31567;54.600;9.842;2024-01-30T05:19:11;31.10;;;23.50;;
45848;SDS011;31567;54.600;9.842;2024-01-30T05:22:51;29.13;;;22.98;;
45848;SDS011;31567;54.600;9.842;2024-01-30T05:26:31;30.08;;;22.38;;
45848;SDS011;31567;54.600;9.842;2024-01-30T05:30:11;31.55;;;22.83;;
45848;SDS011;31567;54.600;9.842;2024-01-30T05:33:50;29.50;;;22.38;;
45848;SDS011;31567;54.600;9.842;2024-01-30T05:37:30;28.67;;;22.35;;
45848;SDS011;31567;54.600;9.842;2024-01-30T05:41:09;29.15;;;22.73;;
45848;SDS011;31567;54.600;9.842;2024-01-30T05:44:49;28.67;;;23.25;;
45848;SDS011;31567;54.600;9.842;2024-01-30T05:48:29;28.73;;;22.38;;
45848;SDS011;31567;54.600;9.842;2024-01-30T05:52:08;32.40;;;23.02;;
45848;SDS011;31567;54.600;9.842;2024-01-30T05:55:48;26.15;;;21.33;;
45848;SDS011;31567;54.600;9.842;2024-01-30T05:59:28;28.35;;;21.38;;
45848;SDS011;31567;54.600;9.842;2024-01-30T06:03:07;27.98;;;20.88;;
45848;SDS011;31567;54.600;9.842;2024-01-30T06:06:47;31.83;;;22.27;;
45848;SDS011;31567;54.600;9.842;2024-01-30T06:10:26;26.92;;;20.98;;
45848;SDS011;31567;54.600;9.842;2024-01-30T06:14:06;25.80;;;20.10;;
45848;SDS011;31567;54.600;9.842;2024-01-30T06:17:45;28.90;;;22.88;;
45848;SDS011;31567;54.600;9.842;2024-01-30T06:21:25;29.83;;;21.30;;
45848;SDS011;31567;54.600;9.842;2024-01-30T06:25:05;26.88;;;21.48;;
45848;SDS011;31567;54.600;9.842;2024-01-30T06:28:44;29.17;;;21.42;;
45848;SDS011;31567;54.600;9.842;2024-01-30T06:32:24;25.23;;;20.88;;
45848;SDS011;31567;54.600;9.842;2024-01-30T06:36:03;25.70;;;20.42;;
45848;SDS011;31567;54.600;9.842;2024-01-30T06:39:43;21.17;;;18.15;;
45848;SDS011;31567;54.600;9.842;2024-01-30T06:43:23;23.92;;;17.88;;
45848;SDS011;31567;54.600;9.842;2024-01-30T06:47:02;22.90;;;17.45;;
45848;SDS011;31567;54.600;9.842;2024-01-30T06:50:42;20.83;;;17.75;;
45848;SDS011;31567;54.600;9.842;2024-01-30T06:54:21;21.02;;;17.48;;
45848;SDS011;31567;54.600;9.842;2024-01-30T06:58:01;23.38;;;17.75;;
45848;SDS011;31567;54.600;9.842;2024-01-30T07:01:40;21.00;;;16.65;;
45848;SDS011;31567;54.600;9.842;2024-01-30T07:05:20;19.27;;;16.45;;
45848;SDS011;31567;54.600;9.842;2024-01-30T07:09:00;18.27;;;15.90;;
45848;SDS011;31567;54.600;9.842;2024-01-30T07:12:40;18.45;;;16.35;;
45848;SDS011;31567;54.600;9.842;2024-01-30T07:16:20;18.38;;;16.13;;
45848;SDS011;31567;54.600;9.842;2024-01-30T07:19:59;19.95;;;16.77;;
45848;SDS011;31567;54.600;9.842;2024-01-30T07:23:39;18.50;;;16.60;;
45848;SDS011;31567;54.600;9.842;2024-01-30T07:27:18;22.33;;;16.27;;
45848;SDS011;31567;54.600;9.842;2024-01-30T07:30:58;19.85;;;15.65;;
45848;SDS011;31567;54.600;9.842;2024-01-30T07:34:37;18.42;;;15.35;;
45848;SDS011;31567;54.600;9.842;2024-01-30T07:38:17;19.08;;;16.10;;
45848;SDS011;31567;54.600;9.842;2024-01-30T07:41:56;18.83;;;15.23;;
45848;SDS011;31567;54.600;9.842;2024-01-30T07:45:36;19.58;;;15.98;;
45848;SDS011;31567;54.600;9.842;2024-01-30T07:49:17;23.65;;;16.40;;
45848;SDS011;31567;54.600;9.842;2024-01-30T07:52:56;18.92;;;15.55;;
45848;SDS011;31567;54.600;9.842;2024-01-30T07:56:36;21.10;;;17.55;;
45848;SDS011;31567;54.600;9.842;2024-01-30T08:00:16;21.75;;;15.75;;
45848;SDS011;31567;54.600;9.842;2024-01-30T08:03:56;18.80;;;15.82;;
45848;SDS011;31567;54.600;9.842;2024-01-30T08:07:35;19.40;;;15.65;;
45848;SDS011;31567;54.600;9.842;2024-01-30T08:11:15;18.88;;;15.75;;
45848;SDS011;31567;54.600;9.842;2024-01-30T08:14:54;19.13;;;16.30;;
45848;SDS011;31567;54.600;9.842;2024-01-30T08:18:34;20.70;;;16.45;;
45848;SDS011;31567;54.600;9.842;2024-01-30T08:22:13;20.40;;;16.48;;
45848;SDS011;31567;54.600;9.842;2024-01-30T08:25:53;19.25;;;16.60;;
45848;SDS011;31567;54.600;9.842;2024-01-30T08:29:32;20.00;;;16.48;;
45848;SDS011;31567;54.600;9.842;2024-01-30T08:33:12;18.75;;;16.52;;
45848;SDS011;31567;54.600;9.842;2024-01-30T08:36:52;22.00;;;17.00;;
45848;SDS011;31567;54.600;9.842;2024-01-30T08:40:32;21.17;;;16.60;;
45848;SDS011;31567;54.600;9.842;2024-01-30T08:44:11;19.27;;;17.10;;
45848;SDS011;31567;54.600;9.842;2024-01-30T08:47:51;21.30;;;17.17;;
45848;SDS011;31567;54.600;9.842;2024-01-30T08:51:30;21.23;;;15.98;;
45848;SDS011;31567;54.600;9.842;2024-01-30T08:55:10;18.83;;;16.42;;
45848;SDS011;31567;54.600;9.842;2024-01-30T08:58:49;18.10;;;15.93;;
45848;SDS011;31567;54.600;9.842;2024-01-30T09:02:29;18.48;;;16.35;;
45848;SDS011;31567;54.600;9.842;2024-01-30T09:06:09;17.67;;;15.77;;
45848;SDS011;31567;54.600;9.842;2024-01-30T09:09:49;19.27;;;16.10;;
45848;SDS011;31567;54.600;9.842;2024-01-30T09:13:28;17.33;;;15.55;;
45848;SDS011;31567;54.600;9.842;2024-01-30T09:17:08;18.25;;;15.73;;
45848;SDS011;31567;54.600;9.842;2024-01-30T09:20:48;20.55;;;15.27;;
45848;SDS011;31567;54.600;9.842;2024-01-30T09:24:27;19.42;;;15.35;;
45848;SDS011;31567;54.600;9.842;2024-01-30T09:28:07;18.80;;;15.65;;
45848;SDS011;31567;54.600;9.842;2024-01-30T09:31:46;17.13;;;14.60;;
45848;SDS011;31567;54.600;9.842;2024-01-30T09:35:26;17.83;;;15.18;;
45848;SDS011;31567;54.600;9.842;2024-01-30T09:39:06;17.13;;;14.63;;
45848;SDS011;31567;54.600;9.842;2024-01-30T09:42:46;18.73;;;14.30;;
45848;SDS011;31567;54.600;9.842;2024-01-30T09:46:29;19.35;;;15.40;;
45848;SDS011;31567;54.600;9.842;2024-01-30T09:50:12;20.13;;;15.02;;
45848;SDS011;31567;54.600;9.842;2024-01-30T09:53:53;17.00;;;14.63;;
45848;SDS011;31567;54.600;9.842;2024-01-30T09:57:34;17.73;;;15.50;;
45848;SDS011;31567;54.600;9.842;2024-01-30T10:01:14;17.23;;;15.13;;
45848;SDS011;31567;54.600;9.842;2024-01-30T10:04:57;16.88;;;14.93;;
45848;SDS011;31567;54.600;9.842;2024-01-30T10:08:38;16.75;;;14.27;;
45848;SDS011;31567;54.600;9.842;2024-01-30T10:12:17;17.60;;;13.90;;
45848;SDS011;31567;54.600;9.842;2024-01-30T10:15:57;16.55;;;14.23;;
45848;SDS011;31567;54.600;9.842;2024-01-30T10:19:37;17.13;;;14.32;;
45848;SDS011;31567;54.600;9.842;2024-01-30T10:23:20;16.40;;;14.38;;
45848;SDS011;31567;54.600;9.842;2024-01-30T10:27:00;16.60;;;14.73;;
45848;SDS011;31567;54.600;9.842;2024-01-30T10:30:40;19.10;;;14.27;;
45848;SDS011;31567;54.600;9.842;2024-01-30T10:34:19;16.45;;;13.88;;
45848;SDS011;31567;54.600;9.842;2024-01-30T10:37:59;16.88;;;14.88;;
45848;SDS011;31567;54.600;9.842;2024-01-30T10:41:42;15.55;;;13.98;;
45848;SDS011;31567;54.600;9.842;2024-01-30T10:45:23;17.60;;;14.38;;
45848;SDS011;31567;54.600;9.842;2024-01-30T10:49:06;15.23;;;13.65;;
45848;SDS011;31567;54.600;9.842;2024-01-30T10:52:46;17.58;;;13.90;;
45848;SDS011;31567;54.600;9.842;2024-01-30T10:56:26;15.48;;;13.80;;
45848;SDS011;31567;54.600;9.842;2024-01-30T11:00:08;21.20;;;14.52;;
45848;SDS011;31567;54.600;9.842;2024-01-30T11:03:51;17.45;;;14.25;;
45848;SDS011;31567;54.600;9.842;2024-01-30T11:07:31;16.23;;;14.15;;
45848;SDS011;31567;54.600;9.842;2024-01-30T11:11:11;24.02;;;16.17;;
45848;SDS011;31567;54.600;9.842;2024-01-30T11:15:03;18.30;;;14.68;;
45848;SDS011;31567;54.600;9.842;2024-01-30T11:18:50;18.65;;;15.70;;
45848;SDS011;31567;54.600;9.842;2024-01-30T11:22:30;17.25;;;15.02;;
45848;SDS011;31567;54.600;9.842;2024-01-30T11:26:10;19.13;;;14.30;;
45848;SDS011;31567;54.600;9.842;2024-01-30T11:29:50;18.05;;;15.05;;
45848;SDS011;31567;54.600;9.842;2024-01-30T11:33:30;16.73;;;14.80;;
45848;SDS011;31567;54.600;9.842;2024-01-30T11:37:10;18.27;;;15.00;;
45848;SDS011;31567;54.600;9.842;2024-01-30T11:40:52;15.70;;;14.13;;
45848;SDS011;31567;54.600;9.842;2024-01-30T11:44:33;16.83;;;14.23;;
45848;SDS011;31567;54.600;9.842;2024-01-30T11:48:12;16.25;;;14.55;;
45848;SDS011;31567;54.600;9.842;2024-01-30T11:51:52;18.38;;;14.18;;
45848;SDS011;31567;54.600;9.842;2024-01-30T11:55:33;16.45;;;13.90;;
45848;SDS011;31567;54.600;9.842;2024-01-30T11:59:14;15.90;;;14.32;;
45848;SDS011;31567;54.600;9.842;2024-01-30T12:02:54;16.75;;;14.35;;
45848;SDS011;31567;54.600;9.842;2024-01-30T12:06:34;16.35;;;14.02;;
45848;SDS011;31567;54.600;9.842;2024-01-30T12:10:15;17.75;;;13.60;;
45848;SDS011;31567;54.600;9.842;2024-01-30T12:13:55;17.67;;;14.23;;
45848;SDS011;31567;54.600;9.842;2024-01-30T12:17:35;18.02;;;13.73;;
45848;SDS011;31567;54.600;9.842;2024-01-30T12:21:18;21.80;;;14.38;;
45848;SDS011;31567;54.600;9.842;2024-01-30T12:24:58;18.60;;;15.55;;
45848;SDS011;31567;54.600;9.842;2024-01-30T12:28:46;21.65;;;14.90;;
45848;SDS011;31567;54.600;9.842;2024-01-30T12:32:27;17.42;;;14.60;;
45848;SDS011;31567;54.600;9.842;2024-01-30T12:36:07;19.08;;;15.00;;
45848;SDS011;31567;54.600;9.842;2024-01-30T12:39:47;17.45;;;14.82;;
45848;SDS011;31567;54.600;9.842;2024-01-30T12:43:26;17.73;;;14.05;;
45848;SDS011;31567;54.600;9.842;2024-01-30T12:47:08;19.58;;;15.43;;
45848;SDS011;31567;54.600;9.842;2024-01-30T12:50:49;17.02;;;14.65;;
45848;SDS011;31567;54.600;9.842;2024-01-30T12:54:28;18.50;;;14.73;;
45848;SDS011;31567;54.600;9.842;2024-01-30T12:58:08;19.77;;;14.60;;
45848;SDS011;31567;54.600;9.842;2024-01-30T13:01:48;23.52;;;15.35;;
45848;SDS011;31567;54.600;9.842;2024-01-30T13:05:27;18.02;;;15.13;;
45848;SDS011;31567;54.600;9.842;2024-01-30T13:09:07;16.98;;;14.43;;
45848;SDS011;31567;54.600;9.842;2024-01-30T13:12:46;16.73;;;14.75;;
45848;SDS011;31567;54.600;9.842;2024-01-30T13:16:26;18.50;;;15.43;;
45848;SDS011;31567;54.600;9.842;2024-01-30T13:20:06;17.52;;;15.23;;
45848;SDS011;31567;54.600;9.842;2024-01-30T13:23:47;17.85;;;14.57;;
45848;SDS011;31567;54.600;9.842;2024-01-30T13:27:27;17.42;;;14.68;;
45848;SDS011;31567;54.600;9.842;2024-01-30T13:31:06;21.23;;;15.90;;
45848;SDS011;31567;54.600;9.842;2024-01-30T13:34:46;16.67;;;14.13;;
45848;SDS011;31567;54.600;9.842;2024-01-30T13:38:25;18.20;;;14.95;;
45848;SDS011;31567;54.600;9.842;2024-01-30T13:42:05;19.17;;;14.27;;
45848;SDS011;31567;54.600;9.842;2024-01-30T13:45:44;19.17;;;15.50;;
45848;SDS011;31567;54.600;9.842;2024-01-30T13:49:25;20.98;;;15.55;;
45848;SDS011;31567;54.600;9.842;2024-01-30T13:53:04;22.88;;;15.77;;
45848;SDS011;31567;54.600;9.842;2024-01-30T13:56:44;18.00;;;15.90;;
45848;SDS011;31567;54.600;9.842;2024-01-30T14:00:23;22.75;;;15.35;;
45848;SDS011;31567;54.600;9.842;2024-01-30T14:04:04;18.48;;;15.40;;
45848;SDS011;31567;54.600;9.842;2024-01-30T14:07:44;23.13;;;15.85;;
45848;SDS011;31567;54.600;9.842;2024-01-30T14:11:23;19.08;;;15.38;;
45848;SDS011;31567;54.600;9.842;2024-01-30T14:15:03;21.08;;;16.95;;
45848;SDS011;31567;54.600;9.842;2024-01-30T14:18:43;19.65;;;16.50;;
45848;SDS011;31567;54.600;9.842;2024-01-30T14:22:23;18.40;;;15.52;;
45848;SDS011;31567;54.600;9.842;2024-01-30T14:26:02;20.30;;;16.20;;
45848;SDS011;31567;54.600;9.842;2024-01-30T14:29:42;20.98;;;15.95;;
45848;SDS011;31567;54.600;9.842;2024-01-30T14:33:22;19.60;;;15.27;;
45848;SDS011;31567;54.600;9.842;2024-01-30T14:37:02;23.45;;;15.48;;
45848;SDS011;31567;54.600;9.842;2024-01-30T14:40:41;24.58;;;15.68;;
45848;SDS011;31567;54.600;9.842;2024-01-30T14:44:21;20.55;;;15.18;;
45848;SDS011;31567;54.600;9.842;2024-01-30T14:48:01;21.77;;;15.38;;
45848;SDS011;31567;54.600;9.842;2024-01-30T14:51:41;20.45;;;15.80;;
45848;SDS011;31567;54.600;9.842;2024-01-30T14:55:21;20.67;;;14.90;;
45848;SDS011;31567;54.600;9.842;2024-01-30T14:59:00;20.33;;;14.68;;
45848;SDS011;31567;54.600;9.842;2024-01-30T15:02:41;15.88;;;12.65;;
45848;SDS011;31567;54.600;9.842;2024-01-30T15:06:20;18.88;;;13.73;;
45848;SDS011;31567;54.600;9.842;2024-01-30T15:10:03;19.55;;;13.48;;
45848;SDS011;31567;54.600;9.842;2024-01-30T15:13:42;18.52;;;14.18;;
45848;SDS011;31567;54.600;9.842;2024-01-30T15:17:22;18.15;;;13.88;;
45848;SDS011;31567;54.600;9.842;2024-01-30T15:21:01;19.02;;;14.45;;
45848;SDS011;31567;54.600;9.842;2024-01-30T15:24:41;17.45;;;14.20;;
45848;SDS011;31567;54.600;9.842;2024-01-30T15:28:37;23.45;;;15.80;;
45848;SDS011;31567;54.600;9.842;2024-01-30T15:32:17;22.98;;;15.25;;
45848;SDS011;31567;54.600;9.842;2024-01-30T15:35:57;22.77;;;16.73;;
45848;SDS011;31567;54.600;9.842;2024-01-30T15:39:40;20.02;;;16.90;;
45848;SDS011;31567;54.600;9.842;2024-01-30T15:43:19;20.02;;;14.50;;
45848;SDS011;31567;54.600;9.842;2024-01-30T15:46:59;15.30;;;12.02;;
45848;SDS011;31567;54.600;9.842;2024-01-30T15:50:38;12.70;;;11.15;;
45848;SDS011;31567;54.600;9.842;2024-01-30T15:54:18;10.40;;;7.78;;
45848;SDS011;31567;54.600;9.842;2024-01-30T15:57:58;7.82;;;5.90;;
45848;SDS011;31567;54.600;9.842;2024-01-30T16:01:37;6.32;;;5.13;;
45848;SDS011;31567;54.600;9.842;2024-01-30T16:05:17;6.90;;;4.55;;
45848;SDS011;31567;54.600;9.842;2024-01-30T16:08:57;8.20;;;4.63;;
45848;SDS011;31567;54.600;9.842;2024-01-30T16:12:36;6.32;;;4.13;;
45848;SDS011;31567;54.600;9.842;2024-01-30T16:16:16;5.38;;;4.28;;
45848;SDS011;31567;54.600;9.842;2024-01-30T16:19:56;5.00;;;4.20;;
45848;SDS011;31567;54.600;9.842;2024-01-30T16:23:35;4.10;;;3.67;;
45848;SDS011;31567;54.600;9.842;2024-01-30T16:27:15;8.98;;;3.85;;
45848;SDS011;31567;54.600;9.842;2024-01-30T16:30:54;4.43;;;3.75;;
45848;SDS011;31567;54.600;9.842;2024-01-30T16:34:34;4.95;;;3.28;;
45848;SDS011;31567;54.600;9.842;2024-01-30T16:38:13;4.70;;;3.40;;
45848;SDS011;31567;54.600;9.842;2024-01-30T16:41:53;8.32;;;3.30;;
45848;SDS011;31567;54.600;9.842;2024-01-30T16:45:32;6.82;;;3.03;;
45848;SDS011;31567;54.600;9.842;2024-01-30T16:49:12;8.00;;;2.80;;
45848;SDS011;31567;54.600;9.842;2024-01-30T16:52:53;5.70;;;2.50;;
45848;SDS011;31567;54.600;9.842;2024-01-30T16:56:32;4.40;;;2.08;;
45848;SDS011;31567;54.600;9.842;2024-01-30T17:00:12;2.65;;;1.67;;
45848;SDS011;31567;54.600;9.842;2024-01-30T17:03:53;5.28;;;1.77;;
45848;SDS011;31567;54.600;9.842;2024-01-30T17:07:33;3.97;;;1.40;;
45848;SDS011;31567;54.600;9.842;2024-01-30T17:11:14;10.73;;;1.50;;
45848;SDS011;31567;54.600;9.842;2024-01-30T17:14:53;2.75;;;1.08;;
45848;SDS011;31567;54.600;9.842;2024-01-30T17:18:33;7.03;;;1.73;;
45848;SDS011;31567;54.600;9.842;2024-01-30T17:22:12;4.35;;;1.27;;
45848;SDS011;31567;54.600;9.842;2024-01-30T17:25:52;3.90;;;1.60;;
45848;SDS011;31567;54.600;9.842;2024-01-30T17:29:32;2.17;;;1.48;;
45848;SDS011;31567;54.600;9.842;2024-01-30T17:33:11;6.03;;;2.20;;
45848;SDS011;31567;54.600;9.842;2024-01-30T17:36:51;3.88;;;1.58;;
45848;SDS011;31567;54.600;9.842;2024-01-30T17:40:30;4.22;;;1.70;;
45848;SDS011;31567;54.600;9.842;2024-01-30T17:44:11;6.25;;;1.85;;
45848;SDS011;31567;54.600;9.842;2024-01-30T17:47:52;6.13;;;1.75;;
45848;SDS011;31567;54.600;9.842;2024-01-30T17:51:32;2.83;;;1.88;;
45848;SDS011;31567;54.600;9.842;2024-01-30T17:55:12;3.45;;;2.08;;
45848;SDS011;31567;54.600;9.842;2024-01-30T17:58:52;2.97;;;2.28;;
45848;SDS011;31567;54.600;9.842;2024-01-30T18:02:32;6.10;;;2.72;;
45848;SDS011;31567;54.600;9.842;2024-01-30T18:06:14;6.68;;;3.05;;
45848;SDS011;31567;54.600;9.842;2024-01-30T18:09:54;4.07;;;3.10;;
45848;SDS011;31567;54.600;9.842;2024-01-30T18:13:34;4.18;;;3.17;;
45848;SDS011;31567;54.600;9.842;2024-01-30T18:17:13;5.50;;;4.00;;
45848;SDS011;31567;54.600;9.842;2024-01-30T18:20:53;4.43;;;4.00;;
45848;SDS011;31567;54.600;9.842;2024-01-30T18:24:32;5.03;;;4.45;;
45848;SDS011;31567;54.600;9.842;2024-01-30T18:28:12;7.97;;;4.30;;
45848;SDS011;31567;54.600;9.842;2024-01-30T18:31:52;8.98;;;5.85;;
45848;SDS011;31567;54.600;9.842;2024-01-30T18:35:31;8.20;;;6.25;;
45848;SDS011;31567;54.600;9.842;2024-01-30T18:39:12;7.32;;;6.63;;
45848;SDS011;31567;54.600;9.842;2024-01-30T18:42:52;10.32;;;7.00;;
45848;SDS011;31567;54.600;9.842;2024-01-30T18:46:32;8.05;;;6.28;;
45848;SDS011;31567;54.600;9.842;2024-01-30T18:50:12;8.82;;;6.90;;
45848;SDS011;31567;54.600;9.842;2024-01-30T18:53:51;7.55;;;5.53;;
45848;SDS011;31567;54.600;9.842;2024-01-30T18:57:31;9.27;;;6.57;;
45848;SDS011;31567;54.600;9.842;2024-01-30T19:01:10;7.65;;;6.75;;
45848;SDS011;31567;54.600;9.842;2024-01-30T19:04:50;7.70;;;5.18;;
45848;SDS011;31567;54.600;9.842;2024-01-30T19:08:31;5.32;;;4.35;;
45848;SDS011;31567;54.600;9.842;2024-01-30T19:12:10;6.57;;;5.22;;
45848;SDS011;31567;54.600;9.842;2024-01-30T19:15:50;5.75;;;5.15;;
45848;SDS011;31567;54.600;9.842;2024-01-30T19:19:29;6.00;;;4.85;;
45848;SDS011;31567;54.600;9.842;2024-01-30T19:23:09;5.28;;;4.78;;
45848;SDS011;31567;54.600;9.842;2024-01-30T19:26:48;5.20;;;4.35;;
45848;SDS011;31567;54.600;9.842;2024-01-30T19:30:31;5.18;;;4.57;;
45848;SDS011;31567;54.600;9.842;2024-01-30T19:34:10;7.10;;;4.95;;
45848;SDS011;31567;54.600;9.842;2024-01-30T19:37:51;5.10;;;4.45;;
45848;SDS011;31567;54.600;9.842;2024-01-30T19:41:30;6.85;;;5.15;;
45848;SDS011;31567;54.600;9.842;2024-01-30T19:45:10;6.13;;;4.25;;
45848;SDS011;31567;54.600;9.842;2024-01-30T19:48:50;6.18;;;4.63;;
45848;SDS011;31567;54.600;9.842;2024-01-30T19:52:30;6.47;;;5.07;;
45848;SDS011;31567;54.600;9.842;2024-01-30T19:56:09;5.60;;;4.45;;
45848;SDS011;31567;54.600;9.842;2024-01-30T19:59:49;6.25;;;5.13;;
45848;SDS011;31567;54.600;9.842;2024-01-30T20:03:29;7.43;;;5.43;;
45848;SDS011;31567;54.600;9.842;2024-01-30T20:07:09;9.40;;;6.63;;
45848;SDS011;31567;54.600;9.842;2024-01-30T20:10:48;8.20;;;6.93;;
45848;SDS011;31567;54.600;9.842;2024-01-30T20:14:29;5.07;;;4.53;;
45848;SDS011;31567;54.600;9.842;2024-01-30T20:18:08;6.88;;;5.07;;
45848;SDS011;31567;54.600;9.842;2024-01-30T20:21:48;9.60;;;5.45;;
45848;SDS011;31567;54.600;9.842;2024-01-30T20:25:28;8.30;;;5.32;;
45848;SDS011;31567;54.600;9.842;2024-01-30T20:29:07;6.85;;;3.97;;
45848;SDS011;31567;54.600;9.842;2024-01-30T20:32:48;12.85;;;5.28;;
45848;SDS011;31567;54.600;9.842;2024-01-30T20:36:28;9.52;;;5.43;;
45848;SDS011;31567;54.600;9.842;2024-01-30T20:40:07;8.00;;;5.82;;
45848;SDS011;31567;54.600;9.842;2024-01-30T20:43:47;8.63;;;5.80;;
45848;SDS011;31567;54.600;9.842;2024-01-30T20:47:27;11.40;;;5.95;;
45848;SDS011;31567;54.600;9.842;2024-01-30T20:51:06;12.40;;;5.53;;
45848;SDS011;31567;54.600;9.842;2024-01-30T20:54:46;10.45;;;5.38;;
45848;SDS011;31567;54.600;9.842;2024-01-30T20:58:25;11.77;;;5.93;;
45848;SDS011;31567;54.600;9.842;2024-01-30T21:02:05;12.13;;;6.43;;
45848;SDS011;31567;54.600;9.842;2024-01-30T21:05:44;12.25;;;6.40;;
45848;SDS011;31567;54.600;9.842;2024-01-30T21:09:24;11.27;;;5.63;;
45848;SDS011;31567;54.600;9.842;2024-01-30T21:13:04;12.40;;;5.53;;
45848;SDS011;31567;54.600;9.842;2024-01-30T21:16:44;13.80;;;6.20;;
45848;SDS011;31567;54.600;9.842;2024-01-30T21:20:23;11.60;;;6.43;;
45848;SDS011;31567;54.600;9.842;2024-01-30T21:24:03;11.50;;;5.60;;
45848;SDS011;31567;54.600;9.842;2024-01-30T21:27:43;9.88;;;5.30;;
45848;SDS011;31567;54.600;9.842;2024-01-30T21:31:22;9.77;;;5.78;;
45848;SDS011;31567;54.600;9.842;2024-01-30T21:35:06;12.45;;;6.90;;